Time;durP1;ratioP1;P1;durP2;ratioP2;P2;SDS_P1;SDS_P2;PMS_P1;PMS_P2;Temp;Humidity;BMP_temperature;BMP_pressure;BME280_temperature;BME280_humidity;BME280_pressure;Samples;Min_cycle;Max_cycle;Signal;HPM_P1;HPM_P2
2022/11/08 00:01:35;;;;;;;;;;;14.00;99.90;;;;;;5089529;28;20360;-36
2022/11/08 00:04:02;;;;;;;;;;;14.00;99.90;;;;;;5089787;28;19912;-38
2022/11/08 00:14:40;;;;;;;;;;;13.80;99.90;;;;;;5094527;28;20362;-34
2022/11/08 00:17:05;;;;;;;;;;;13.70;99.90;;;;;;5102706;28;19907;-36
2022/11/08 00:19:31;;;;;;;;;;;13.70;99.90;;;;;;5095011;28;19908;-38
2022/11/08 00:21:56;;;;;;;;;;;13.70;99.90;;;;;;5101477;28;20309;-34
2022/11/08 00:24:22;;;;;;;;;;;13.60;99.90;;;;;;5107369;28;20002;-37
2022/11/08 00:26:47;;;;;;;;;;;13.60;99.90;;;;;;5104143;27;19953;-40
2022/11/08 00:29:13;;;;;;;;;;;13.60;99.90;;;;;;5102515;28;19915;-32
2022/11/08 00:31:38;;;;;;;;;;;13.50;99.90;;;;;;5098063;28;20356;-37
2022/11/08 00:34:04;;;;;;;;;;;13.50;99.90;;;;;;5104733;28;20548;-37
2022/11/08 00:36:29;;;;;;;;;;;13.40;99.90;;;;;;5112190;28;19911;-36
2022/11/08 00:38:55;;;;;;;;;;;13.40;99.90;;;;;;5111399;28;20360;-32
2022/11/08 00:41:20;;;;;;;;;;;13.40;99.90;;;;;;5098666;28;19911;-35
2022/11/08 00:43:46;;;;;;;;;;;13.30;99.90;;;;;;5103156;28;19911;-37
2022/11/08 00:46:11;;;;;;;;;;;13.30;99.90;;;;;;5115612;28;20283;-40
2022/11/08 00:48:37;;;;;;;;;;;13.30;99.90;;;;;;5098271;28;19908;-36
2022/11/08 00:51:03;;;;;;;;;;;13.30;99.90;;;;;;5110050;28;19915;-39
2022/11/08 00:53:28;;;;;;;;;;;13.30;99.90;;;;;;5100493;28;20444;-40
2022/11/08 00:55:57;;;;;;;;;;;13.30;99.90;;;;;;5114650;28;19911;-41
2022/11/08 00:58:23;;;;;;;;;;;13.30;99.90;;;;;;5110665;28;20382;-41
2022/11/08 01:00:48;;;;;;;;;;;13.30;99.90;;;;;;5112132;28;19911;-40
2022/11/08 01:03:20;;;;;;;;;;;13.30;99.90;;;;;;5115749;28;19937;-45
2022/11/08 01:05:46;;;;;;;;;;;13.20;99.90;;;;;;5097876;28;19934;-39
2022/11/08 01:08:12;;;;;;;;;;;13.20;99.90;;;;;;5097139;28;19973;-39
2022/11/08 01:10:41;;;;;;;;;;;13.20;99.90;;;;;;5110870;28;19908;-54
2022/11/08 01:13:07;;;;;;;;;;;13.20;99.90;;;;;;5099097;28;20322;-40
2022/11/08 01:15:36;;;;;;;;;;;13.10;99.90;;;;;;5098906;28;19914;-39
2022/11/08 01:18:02;;;;;;;;;;;13.10;99.90;;;;;;5095705;28;19908;-40
2022/11/08 01:20:27;;;;;;;;;;;13.10;99.90;;;;;;5111835;28;19907;-41
2022/11/08 01:22:53;;;;;;;;;;;13.10;99.90;;;;;;5106747;28;19907;-41
2022/11/08 01:25:18;;;;;;;;;;;13.10;99.90;;;;;;5110923;28;19907;-32
2022/11/08 01:27:44;;;;;;;;;;;13.10;99.90;;;;;;5100832;28;19908;-42
2022/11/08 01:30:10;;;;;;;;;;;13.10;99.90;;;;;;5105481;28;20352;-40
2022/11/08 01:32:35;;;;;;;;;;;13.10;99.90;;;;;;5099122;28;19908;-40
2022/11/08 01:35:00;;;;;;;;;;;13.00;99.90;;;;;;5104616;28;19908;-40
2022/11/08 01:37:26;;;;;;;;;;;13.00;99.90;;;;;;5108098;28;20379;-40
2022/11/08 01:39:51;;;;;;;;;;;13.10;99.90;;;;;;5100857;28;19912;-40
2022/11/08 01:42:25;;;;;;;;;;;13.00;99.90;;;;;;5095502;28;19965;-39
2022/11/08 01:45:05;;;;;;;;;;;13.10;99.90;;;;;;5098880;28;20451;-39
2022/11/08 01:47:30;;;;;;;;;;;13.10;99.90;;;;;;5100279;28;19915;-40
2022/11/08 01:49:57;;;;;;;;;;;13.10;99.90;;;;;;5101758;28;21529;-41
2022/11/08 01:52:29;;;;;;;;;;;13.10;99.90;;;;;;5103097;28;19912;-41
2022/11/08 01:55:04;;;;;;;;;;;13.10;99.90;;;;;;5097894;28;19953;-39
2022/11/08 01:57:33;;;;;;;;;;;13.10;99.90;;;;;;5094663;28;19908;-40
2022/11/08 02:00:00;;;;;;;;;;;13.10;99.90;;;;;;5095001;28;20022;-42
2022/11/08 02:02:26;;;;;;;;;;;13.00;99.90;;;;;;5102512;28;19954;-40
2022/11/08 02:04:53;;;;;;;;;;;13.00;99.90;;;;;;5101223;28;19943;-41
2022/11/08 02:07:19;;;;;;;;;;;13.00;99.90;;;;;;5109337;28;20437;-41
2022/11/08 02:09:45;;;;;;;;;;;12.90;99.90;;;;;;5094849;28;19996;-40
2022/11/08 02:12:11;;;;;;;;;;;12.90;99.90;;;;;;5094567;28;19927;-40
2022/11/08 02:14:37;;;;;;;;;;;12.90;99.90;;;;;;5105712;28;20363;-41
2022/11/08 02:17:02;;;;;;;;;;;12.80;99.90;;;;;;5111169;28;19912;-40
2022/11/08 02:19:36;;;;;;;;;;;12.80;99.90;;;;;;5095593;28;19915;-39
2022/11/08 02:22:03;;;;;;;;;;;12.80;99.90;;;;;;5097244;28;19919;-38
2022/11/08 02:24:29;;;;;;;;;;;12.80;99.90;;;;;;5098714;28;20274;-41
2022/11/08 02:26:55;;;;;;;;;;;12.70;99.90;;;;;;5103480;28;20044;-42
2022/11/08 02:29:31;;;;;;;;;;;12.70;99.90;;;;;;5114228;28;19911;-38
2022/11/08 02:31:57;;;;;;;;;;;12.70;99.90;;;;;;5093370;28;19919;-32
2022/11/08 02:34:28;;;;;;;;;;;12.70;99.90;;;;;;5097300;28;19996;-36
2022/11/08 02:36:54;;;;;;;;;;;12.60;99.90;;;;;;5101426;28;19912;-35
2022/11/08 02:39:20;;;;;;;;;;;12.70;99.90;;;;;;5097291;28;20356;-37
2022/11/08 02:41:45;;;;;;;;;;;12.60;99.90;;;;;;5099960;28;19969;-35
2022/11/08 02:44:11;;;;;;;;;;;12.60;99.90;;;;;;5093167;28;19908;-33
2022/11/08 02:46:36;;;;;;;;;;;12.60;99.90;;;;;;5094301;28;20007;-36
2022/11/08 02:49:02;;;;;;;;;;;12.50;99.90;;;;;;5097436;28;19908;-36
2022/11/08 02:51:27;;;;;;;;;;;12.50;99.90;;;;;;5105701;28;19951;-37
2022/11/08 02:53:53;;;;;;;;;;;12.50;99.90;;;;;;5091852;28;20415;-36
2022/11/08 02:56:18;;;;;;;;;;;12.50;99.90;;;;;;5101782;28;19951;-33
2022/11/08 02:58:44;;;;;;;;;;;12.50;99.90;;;;;;5102545;28;19911;-36
2022/11/08 03:01:09;;;;;;;;;;;12.50;99.90;;;;;;5101418;28;19954;-35
2022/11/08 03:03:35;;;;;;;;;;;12.50;99.90;;;;;;5114612;28;20356;-33
2022/11/08 03:06:00;;;;;;;;;;;12.50;99.90;;;;;;5109697;28;20291;-34
2022/11/08 03:08:25;;;;;;;;;;;12.50;99.90;;;;;;5099250;28;19949;-33
2022/11/08 03:10:51;;;;;;;;;;;12.50;99.90;;;;;;5112628;28;20371;-33
2022/11/08 03:13:16;;;;;;;;;;;12.50;99.90;;;;;;5111585;28;19915;-38
2022/11/08 03:15:42;;;;;;;;;;;12.50;99.90;;;;;;5107616;28;20364;-31
2022/11/08 03:18:07;;;;;;;;;;;12.50;99.90;;;;;;5093245;28;19957;-34
2022/11/08 03:20:33;;;;;;;;;;;12.50;99.90;;;;;;5108285;28;20424;-31
2022/11/08 03:23:03;;;;;;;;;;;12.50;99.90;;;;;;5112067;28;19915;-41
2022/11/08 03:25:28;;;;;;;;;;;12.50;99.90;;;;;;5091711;28;19908;-39
2022/11/08 03:27:54;;;;;;;;;;;12.50;99.90;;;;;;5093628;28;19914;-36
2022/11/08 03:30:20;;;;;;;;;;;12.50;99.90;;;;;;5095546;28;19915;-35
2022/11/08 03:32:46;;;;;;;;;;;12.50;99.90;;;;;;5094765;28;20363;-37
2022/11/08 03:35:11;;;;;;;;;;;12.50;99.90;;;;;;5113786;28;19907;-35
2022/11/08 03:37:37;;;;;;;;;;;12.50;99.90;;;;;;5110678;28;19908;-46
2022/11/08 03:40:03;;;;;;;;;;;12.50;99.90;;;;;;5105229;28;19907;-33
2022/11/08 03:42:28;;;;;;;;;;;12.50;99.90;;;;;;5110761;28;19937;-35
2022/11/08 03:44:54;;;;;;;;;;;12.50;99.90;;;;;;5107749;28;19943;-34
2022/11/08 03:47:19;;;;;;;;;;;12.50;99.90;;;;;;5093291;28;19914;-31
2022/11/08 03:49:44;;;;;;;;;;;12.50;99.90;;;;;;5100700;28;19917;-31
2022/11/08 03:52:10;;;;;;;;;;;12.50;99.90;;;;;;5103937;28;20428;-39
2022/11/08 03:54:35;;;;;;;;;;;12.50;99.90;;;;;;5102686;28;19912;-33
2022/11/08 03:57:01;;;;;;;;;;;12.50;99.90;;;;;;5097531;28;20276;-33
2022/11/08 03:59:26;;;;;;;;;;;12.50;99.90;;;;;;5102202;28;19908;-32
2022/11/08 04:01:52;;;;;;;;;;;12.50;99.90;;;;;;5107833;28;19919;-33
2022/11/08 04:04:17;;;;;;;;;;;12.50;99.90;;;;;;5098166;28;20371;-32
2022/11/08 04:06:43;;;;;;;;;;;12.50;99.90;;;;;;5097214;28;19908;-34
2022/11/08 04:09:08;;;;;;;;;;;12.50;99.90;;;;;;5097327;28;20390;-35
2022/11/08 04:17:02;;;;;;;;;;;12.60;99.90;;;;;;5114542;28;19922;-38
2022/11/08 04:22:11;;;;;;;;;;;12.60;99.90;;;;;;5097533;28;19919;-35
2022/11/08 04:24:37;;;;;;;;;;;12.60;99.90;;;;;;5096980;28;19916;-41
2022/11/08 04:27:02;;;;;;;;;;;12.60;99.90;;;;;;5106445;28;19962;-45
2022/11/08 04:29:28;;;;;;;;;;;12.60;99.90;;;;;;5113485;28;19952;-39
2022/11/08 04:31:54;;;;;;;;;;;12.60;99.90;;;;;;5114094;28;19923;-35
2022/11/08 04:34:19;;;;;;;;;;;12.60;99.90;;;;;;5102191;28;19908;-40
2022/11/08 04:36:45;;;;;;;;;;;12.60;99.90;;;;;;5102593;28;19914;-40
2022/11/08 04:39:10;;;;;;;;;;;12.60;99.90;;;;;;5097725;28;19922;-40
2022/11/08 04:41:35;;;;;;;;;;;12.70;99.90;;;;;;5108570;28;19969;-39
2022/11/08 04:44:01;;;;;;;;;;;12.70;99.90;;;;;;5116517;28;20003;-41
2022/11/08 04:46:27;;;;;;;;;;;12.70;99.90;;;;;;5115711;28;20443;-33
2022/11/08 04:48:54;;;;;;;;;;;12.70;99.90;;;;;;5100375;28;19948;-32
2022/11/08 04:51:21;;;;;;;;;;;12.70;99.90;;;;;;5092521;28;19919;-37
2022/11/08 04:53:47;;;;;;;;;;;12.70;99.90;;;;;;5098910;28;19919;-44
2022/11/08 04:56:14;;;;;;;;;;;12.70;99.90;;;;;;5100825;28;19907;-45
2022/11/08 04:58:40;;;;;;;;;;;12.70;99.90;;;;;;5097500;28;19954;-39
2022/11/08 05:01:07;;;;;;;;;;;12.70;99.90;;;;;;5108566;28;19916;-38
2022/11/08 05:03:33;;;;;;;;;;;12.60;99.90;;;;;;5097208;28;19969;-38
2022/11/08 05:06:02;;;;;;;;;;;12.60;99.90;;;;;;5097266;28;19908;-40
2022/11/08 05:08:28;;;;;;;;;;;12.60;99.90;;;;;;5099550;28;20367;-41
2022/11/08 05:11:03;;;;;;;;;;;12.70;99.90;;;;;;5101659;28;19952;-35
2022/11/08 05:13:29;;;;;;;;;;;12.70;99.90;;;;;;5105974;28;19915;-42
2022/11/08 05:15:58;;;;;;;;;;;12.70;99.90;;;;;;5098692;28;19914;-43
2022/11/08 05:18:23;;;;;;;;;;;12.60;99.90;;;;;;5115589;28;19915;-41
2022/11/08 05:23:36;;;;;;;;;;;12.60;99.90;;;;;;5098831;28;20374;-46
2022/11/08 05:26:01;;;;;;;;;;;12.60;99.90;;;;;;5098631;28;19915;-55
2022/11/08 05:28:27;;;;;;;;;;;12.60;99.90;;;;;;5106633;28;20328;-41
2022/11/08 05:30:53;;;;;;;;;;;12.70;99.90;;;;;;5110430;28;19908;-41
2022/11/08 05:39:25;;;;;;;;;;;12.60;99.90;;;;;;5097284;28;20007;-39
2022/11/08 05:41:51;;;;;;;;;;;12.70;99.90;;;;;;5099794;28;20002;-42
2022/11/08 05:44:16;;;;;;;;;;;12.60;99.90;;;;;;5093169;28;20370;-39
2022/11/08 05:46:42;;;;;;;;;;;12.60;99.90;;;;;;5106731;28;19907;-58
2022/11/08 05:49:07;;;;;;;;;;;12.60;99.90;;;;;;5113486;28;19908;-40
2022/11/08 05:51:33;;;;;;;;;;;12.60;99.90;;;;;;5097897;28;20306;-35
2022/11/08 05:53:58;;;;;;;;;;;12.60;99.90;;;;;;5100908;28;20363;-34
2022/11/08 05:56:24;;;;;;;;;;;12.60;99.90;;;;;;5107265;28;21189;-35
2022/11/08 05:58:49;;;;;;;;;;;12.60;99.90;;;;;;5101669;28;20007;-34
2022/11/08 06:01:16;;;;;;;;;;;12.60;99.90;;;;;;5093831;28;20268;-34
2022/11/08 06:03:41;;;;;;;;;;;12.60;99.90;;;;;;5094103;28;19912;-35
2022/11/08 06:06:09;;;;;;;;;;;12.50;99.90;;;;;;5098922;28;19995;-32
2022/11/08 06:08:35;;;;;;;;;;;12.50;99.90;;;;;;5103581;28;19949;-32
2022/11/08 06:11:02;;;;;;;;;;;12.60;99.90;;;;;;5107634;28;19943;-30
2022/11/08 06:13:27;;;;;;;;;;;12.60;99.90;;;;;;5096032;28;19915;-36
2022/11/08 06:15:53;;;;;;;;;;;12.50;99.90;;;;;;5102573;28;20326;-33
2022/11/08 06:18:18;;;;;;;;;;;12.50;99.90;;;;;;5091708;28;19915;-31
2022/11/08 06:20:44;;;;;;;;;;;12.50;99.90;;;;;;5097322;28;19915;-31
2022/11/08 06:23:09;;;;;;;;;;;12.50;99.90;;;;;;5102093;28;20364;-39
2022/11/08 06:25:36;;;;;;;;;;;12.50;99.90;;;;;;5097164;28;19953;-38
2022/11/08 06:28:01;;;;;;;;;;;12.40;99.90;;;;;;5110159;28;19908;-57
2022/11/08 06:30:27;;;;;;;;;;;12.40;99.90;;;;;;5103798;28;20367;-41
2022/11/08 06:32:52;;;;;;;;;;;12.40;99.90;;;;;;5094815;28;19915;-39
2022/11/08 06:35:18;;;;;;;;;;;12.40;99.90;;;;;;5094649;28;19915;-41
2022/11/08 06:37:43;;;;;;;;;;;12.40;99.90;;;;;;5092775;28;19908;-35
2022/11/08 06:40:09;;;;;;;;;;;12.40;99.90;;;;;;5101369;28;20279;-32
2022/11/08 06:42:35;;;;;;;;;;;12.40;99.90;;;;;;5113311;28;19964;-34
2022/11/08 06:45:00;;;;;;;;;;;12.40;99.90;;;;;;5112427;28;19955;-37
2022/11/08 06:47:26;;;;;;;;;;;12.40;99.90;;;;;;5106148;28;20179;-38
2022/11/08 06:49:51;;;;;;;;;;;12.30;99.90;;;;;;5110550;28;20282;-41
2022/11/08 06:52:16;;;;;;;;;;;12.30;99.90;;;;;;5113943;28;19911;-42
2022/11/08 06:54:42;;;;;;;;;;;12.30;99.90;;;;;;5095204;28;19954;-39
2022/11/08 06:57:07;;;;;;;;;;;12.40;99.90;;;;;;5103046;28;19908;-42
2022/11/08 06:59:33;;;;;;;;;;;12.40;99.90;;;;;;5093692;28;19958;-42
2022/11/08 07:01:58;;;;;;;;;;;12.40;99.90;;;;;;5099826;28;19937;-41
2022/11/08 07:04:24;;;;;;;;;;;12.40;99.90;;;;;;5101278;28;19962;-42
2022/11/08 07:06:49;;;;;;;;;;;12.40;99.90;;;;;;5099081;28;19915;-53
2022/11/08 07:09:15;;;;;;;;;;;12.40;99.90;;;;;;5100186;28;20141;-44
2022/11/08 07:11:40;;;;;;;;;;;12.40;99.90;;;;;;5102702;28;19919;-42
2022/11/08 07:14:06;;;;;;;;;;;12.50;99.90;;;;;;5094437;28;20369;-41
2022/11/08 07:16:31;;;;;;;;;;;12.60;99.90;;;;;;5090506;28;19985;-42
2022/11/08 07:18:57;;;;;;;;;;;12.50;99.90;;;;;;5104819;28;19914;-34
2022/11/08 07:21:22;;;;;;;;;;;12.50;99.90;;;;;;5098884;28;19918;-40
2022/11/08 07:23:48;;;;;;;;;;;12.50;99.90;;;;;;5103830;28;20386;-37
2022/11/08 07:26:14;;;;;;;;;;;12.60;99.90;;;;;;5111024;28;19907;-40
2022/11/08 07:28:40;;;;;;;;;;;12.60;99.90;;;;;;5113671;28;20331;-38
2022/11/08 07:31:06;;;;;;;;;;;12.60;99.90;;;;;;5114108;28;20002;-39
2022/11/08 07:33:31;;;;;;;;;;;12.60;99.90;;;;;;5113719;28;19999;-38
2022/11/08 07:35:57;;;;;;;;;;;12.60;99.90;;;;;;5111078;28;20367;-38
2022/11/08 07:38:24;;;;;;;;;;;12.60;99.90;;;;;;5113810;28;20359;-40
2022/11/08 07:40:50;;;;;;;;;;;12.70;99.90;;;;;;5111974;28;19931;-39
2022/11/08 07:43:16;;;;;;;;;;;12.70;99.90;;;;;;5113725;28;19912;-41
2022/11/08 07:45:41;;;;;;;;;;;12.70;99.90;;;;;;5112036;28;19994;-39
2022/11/08 07:48:08;;;;;;;;;;;12.70;99.90;;;;;;5113782;28;19952;-38
2022/11/08 07:50:33;;;;;;;;;;;12.70;99.90;;;;;;5113715;28;20367;-38
2022/11/08 07:52:59;;;;;;;;;;;12.80;99.90;;;;;;5105094;28;19915;-40
2022/11/08 07:55:25;;;;;;;;;;;12.80;99.90;;;;;;5093009;28;19908;-38
2022/11/08 07:57:50;;;;;;;;;;;12.90;99.90;;;;;;5112879;28;20382;-39
2022/11/08 08:00:16;;;;;;;;;;;12.90;99.90;;;;;;5113628;28;19911;-40
2022/11/08 08:02:42;;;;;;;;;;;12.90;99.90;;;;;;5095144;28;20015;-39
2022/11/08 08:05:07;;;;;;;;;;;12.90;99.90;;;;;;5093316;28;19907;-39
2022/11/08 08:07:34;;;;;;;;;;;12.80;99.90;;;;;;5112487;28;19930;-40
2022/11/08 08:09:59;;;;;;;;;;;12.90;99.90;;;;;;5112739;28;19908;-40
2022/11/08 08:12:24;;;;;;;;;;;13.00;99.90;;;;;;5111602;28;20003;-38
2022/11/08 08:14:50;;;;;;;;;;;12.90;99.90;;;;;;5113410;28;19915;-41
2022/11/08 08:17:15;;;;;;;;;;;12.90;99.90;;;;;;5113791;28;19908;-45
2022/11/08 08:19:41;;;;;;;;;;;12.90;99.90;;;;;;5095144;28;19915;-38
2022/11/08 08:22:07;;;;;;;;;;;13.00;99.90;;;;;;5099038;28;19915;-39
2022/11/08 08:24:32;;;;;;;;;;;13.00;99.90;;;;;;5093118;28;20760;-39
2022/11/08 08:26:58;;;;;;;;;;;13.00;99.90;;;;;;5092875;28;19914;-40
2022/11/08 08:29:23;;;;;;;;;;;13.00;99.90;;;;;;5095098;28;19947;-40
2022/11/08 08:31:49;;;;;;;;;;;13.00;99.90;;;;;;5105901;28;19915;-39
2022/11/08 08:34:15;;;;;;;;;;;13.10;99.90;;;;;;5096191;28;19908;-39
2022/11/08 08:36:40;;;;;;;;;;;13.10;99.90;;;;;;5101454;28;20002;-43
2022/11/08 08:39:06;;;;;;;;;;;13.20;99.90;;;;;;5103224;28;19919;-40
2022/11/08 08:41:31;;;;;;;;;;;13.30;99.90;;;;;;5106994;28;20401;-42
2022/11/08 08:43:57;;;;;;;;;;;13.40;99.90;;;;;;5113828;28;20275;-41
2022/11/08 08:46:22;;;;;;;;;;;13.40;99.90;;;;;;5117101;28;19956;-40
2022/11/08 08:48:48;;;;;;;;;;;13.40;99.90;;;;;;5104842;28;19915;-39
2022/11/08 08:51:13;;;;;;;;;;;13.40;99.90;;;;;;5096541;28;19915;-38
2022/11/08 08:53:39;;;;;;;;;;;13.40;99.90;;;;;;5096326;28;19908;-36
2022/11/08 08:56:05;;;;;;;;;;;13.50;99.90;;;;;;5098857;28;20383;-41
2022/11/08 08:58:31;;;;;;;;;;;13.60;99.90;;;;;;5096519;28;19908;-40
2022/11/08 09:01:00;;;;;;;;;;;13.60;99.90;;;;;;5101832;28;19914;-40
2022/11/08 09:06:10;;;;;;;;;;;13.70;99.90;;;;;;5116677;28;20340;-39
2022/11/08 09:08:36;;;;;;;;;;;13.80;99.90;;;;;;5114569;28;19954;-40
2022/11/08 09:11:02;;;;;;;;;;;13.80;99.90;;;;;;5099091;28;19908;-40
2022/11/08 09:13:29;;;;;;;;;;;13.70;99.90;;;;;;5105566;28;19916;-40
2022/11/08 09:15:55;;;;;;;;;;;13.70;99.90;;;;;;5094864;28;19914;-42
2022/11/08 09:18:21;;;;;;;;;;;13.80;99.90;;;;;;5095385;28;20431;-50
2022/11/08 09:20:46;;;;;;;;;;;13.90;99.90;;;;;;5095925;28;19908;-39
2022/11/08 09:23:12;;;;;;;;;;;14.00;99.90;;;;;;5096096;28;20364;-40
2022/11/08 09:25:38;;;;;;;;;;;14.00;99.90;;;;;;5100566;28;19908;-39
2022/11/08 09:28:03;;;;;;;;;;;14.10;99.90;;;;;;5108170;28;20006;-41
2022/11/08 09:30:29;;;;;;;;;;;14.10;99.90;;;;;;5098766;28;19998;-42
2022/11/08 09:32:54;;;;;;;;;;;14.10;99.90;;;;;;5095848;28;19911;-43
2022/11/08 09:35:20;;;;;;;;;;;14.00;99.90;;;;;;5095512;28;19978;-41
2022/11/08 09:37:46;;;;;;;;;;;14.00;99.90;;;;;;5095742;28;19918;-41
2022/11/08 09:40:16;;;;;;;;;;;13.90;99.90;;;;;;5105498;28;19908;-40
2022/11/08 09:42:41;;;;;;;;;;;13.90;99.90;;;;;;5099157;28;20382;-40
2022/11/08 09:45:28;;;;;;;;;;;14.00;99.90;;;;;;5093891;28;19991;-41
2022/11/08 09:47:54;;;;;;;;;;;14.10;99.90;;;;;;5095934;28;19912;-41
2022/11/08 09:50:41;;;;;;;;;;;14.10;99.90;;;;;;5101768;28;19908;-37
2022/11/08 09:53:13;;;;;;;;;;;14.30;99.90;;;;;;5096624;28;19915;-33
2022/11/08 09:55:41;;;;;;;;;;;14.40;99.90;;;;;;5104517;28;19914;-36
2022/11/08 09:58:17;;;;;;;;;;;14.50;99.90;;;;;;5098894;28;19912;-34
2022/11/08 10:00:43;;;;;;;;;;;14.50;99.90;;;;;;5112174;27;19977;-32
2022/11/08 10:03:13;;;;;;;;;;;14.50;99.90;;;;;;5105605;28;19916;-34
2022/11/08 10:05:41;;;;;;;;;;;14.50;99.90;;;;;;5098794;28;19914;-34
2022/11/08 10:08:10;;;;;;;;;;;14.40;99.90;;;;;;5107229;28;19916;-35
2022/11/08 10:10:47;;;;;;;;;;;14.40;99.90;;;;;;5105347;28;19912;-32
2022/11/08 10:13:19;;;;;;;;;;;14.50;99.90;;;;;;5110589;27;19912;-34
2022/11/08 10:16:03;;;;;;;;;;;14.50;99.90;;;;;;5101594;28;19926;-35
2022/11/08 10:18:30;;;;;;;;;;;14.60;99.90;;;;;;5108746;28;19908;-34
2022/11/08 10:20:56;;;;;;;;;;;14.70;99.90;;;;;;5101626;28;20010;-37
2022/11/08 10:23:40;;;;;;;;;;;14.70;99.90;;;;;;5113822;28;20371;-33
2022/11/08 10:26:16;;;;;;;;;;;14.70;99.90;;;;;;5106287;28;19912;-37
2022/11/08 10:28:46;;;;;;;;;;;14.80;99.90;;;;;;5102119;28;19908;-36
2022/11/08 10:31:12;;;;;;;;;;;14.80;99.90;;;;;;5105716;28;19915;-33
2022/11/08 10:33:42;;;;;;;;;;;14.80;99.90;;;;;;5112606;28;19912;-32
2022/11/08 10:36:13;;;;;;;;;;;14.80;99.90;;;;;;5101143;28;19909;-34
2022/11/08 10:38:59;;;;;;;;;;;14.70;99.90;;;;;;5103776;28;19908;-35
2022/11/08 10:41:29;;;;;;;;;;;14.60;99.90;;;;;;5106597;28;19937;-34
2022/11/08 10:44:03;;;;;;;;;;;14.60;99.90;;;;;;5106499;28;19907;-32
2022/11/08 10:46:48;;;;;;;;;;;14.60;99.90;;;;;;5114696;28;19911;-34
2022/11/08 10:49:23;;;;;;;;;;;14.60;99.90;;;;;;5112698;28;19931;-34
2022/11/08 10:51:50;;;;;;;;;;;14.70;99.90;;;;;;5111426;28;19962;-34
2022/11/08 10:54:34;;;;;;;;;;;14.80;99.90;;;;;;5106379;28;20006;-37
2022/11/08 10:57:00;;;;;;;;;;;14.80;99.90;;;;;;5105197;28;19911;-34
2022/11/08 10:59:29;;;;;;;;;;;14.80;99.90;;;;;;5102051;28;19912;-32
2022/11/08 11:01:55;;;;;;;;;;;14.90;99.90;;;;;;5112515;28;19918;-35
2022/11/08 11:04:28;;;;;;;;;;;15.00;99.90;;;;;;5105200;28;19998;-37
2022/11/08 11:06:54;;;;;;;;;;;15.10;99.90;;;;;;5092683;28;19908;-34
2022/11/08 11:09:21;;;;;;;;;;;15.20;99.90;;;;;;5101384;28;19915;-37
2022/11/08 11:11:54;;;;;;;;;;;15.20;99.90;;;;;;5096699;28;20355;-34
2022/11/08 11:14:23;;;;;;;;;;;15.30;99.90;;;;;;5102428;27;20395;-33
2022/11/08 11:17:13;;;;;;;;;;;15.40;99.90;;;;;;5104481;28;20321;-56
2022/11/08 11:19:41;;;;;;;;;;;15.40;99.90;;;;;;5094769;28;19907;-36
2022/11/08 11:22:08;;;;;;;;;;;15.40;99.90;;;;;;5094441;28;19912;-37
2022/11/08 11:24:34;;;;;;;;;;;15.60;99.90;;;;;;5107943;28;20376;-48
2022/11/08 11:27:02;;;;;;;;;;;15.70;99.90;;;;;;5096846;28;19908;-39
2022/11/08 11:29:28;;;;;;;;;;;15.70;99.90;;;;;;5104729;28;19908;-35
2022/11/08 11:31:54;;;;;;;;;;;15.80;99.90;;;;;;5095481;28;20272;-39
2022/11/08 11:34:32;;;;;;;;;;;15.80;99.90;;;;;;5093000;28;19907;-34
2022/11/08 11:36:57;;;;;;;;;;;15.70;99.90;;;;;;5109326;28;19908;-35
2022/11/08 11:39:29;;;;;;;;;;;15.60;99.90;;;;;;5099641;28;20352;-34
2022/11/08 11:42:03;;;;;;;;;;;15.60;99.90;;;;;;5104564;28;19916;-35
2022/11/08 11:44:33;;;;;;;;;;;15.60;99.90;;;;;;5101751;28;19907;-42
2022/11/08 11:47:02;;;;;;;;;;;15.60;99.90;;;;;;5097640;28;20447;-42
2022/11/08 11:49:29;;;;;;;;;;;15.50;99.90;;;;;;5103002;28;19914;-42
2022/11/08 11:51:55;;;;;;;;;;;15.60;99.90;;;;;;5096680;28;19908;-36
2022/11/08 11:54:24;;;;;;;;;;;15.60;99.90;;;;;;5094387;28;19961;-40
2022/11/08 11:57:08;;;;;;;;;;;15.60;99.90;;;;;;5109791;28;19923;-40
2022/11/08 11:59:40;;;;;;;;;;;15.60;99.90;;;;;;5112609;28;19951;-43
2022/11/08 12:02:23;;;;;;;;;;;15.60;99.90;;;;;;5098248;28;19912;-41
2022/11/08 12:04:55;;;;;;;;;;;15.80;99.90;;;;;;5100840;28;20351;-41
2022/11/08 12:07:23;;;;;;;;;;;15.90;99.90;;;;;;5111653;28;20422;-39
2022/11/08 12:10:01;;;;;;;;;;;16.00;99.90;;;;;;5102424;28;19919;-41
2022/11/08 12:12:26;;;;;;;;;;;16.00;99.90;;;;;;5105828;28;19915;-42
2022/11/08 12:14:55;;;;;;;;;;;16.10;99.90;;;;;;5101447;28;19915;-42
2022/11/08 12:17:24;;;;;;;;;;;16.10;99.90;;;;;;5097937;28;20264;-39
2022/11/08 12:20:08;;;;;;;;;;;16.20;99.90;;;;;;5101558;28;19915;-40
2022/11/08 12:22:33;;;;;;;;;;;16.30;99.90;;;;;;5104301;28;20364;-42
2022/11/08 12:25:02;;;;;;;;;;;16.20;99.90;;;;;;5097118;28;19915;-40
2022/11/08 12:27:27;;;;;;;;;;;16.10;99.90;;;;;;5107298;28;19908;-42
2022/11/08 12:30:12;;;;;;;;;;;16.10;99.90;;;;;;5115408;28;19907;-39
2022/11/08 12:32:44;;;;;;;;;;;16.10;99.90;;;;;;5115003;28;20287;-44
2022/11/08 12:35:22;;;;;;;;;;;16.20;99.90;;;;;;5114190;28;20401;-43
2022/11/08 12:37:59;;;;;;;;;;;16.20;99.90;;;;;;5109900;28;20360;-38
2022/11/08 12:40:41;;;;;;;;;;;16.10;99.90;;;;;;5114811;28;20355;-40
2022/11/08 12:43:15;;;;;;;;;;;16.20;99.90;;;;;;5099524;28;20322;-41
2022/11/08 12:45:41;;;;;;;;;;;16.30;99.90;;;;;;5100189;27;19953;-38
2022/11/08 12:48:09;;;;;;;;;;;16.40;99.90;;;;;;5096983;28;20280;-44
2022/11/08 12:50:34;;;;;;;;;;;16.50;99.90;;;;;;5097282;28;19915;-41
2022/11/08 12:53:00;;;;;;;;;;;16.60;99.90;;;;;;5110911;28;19941;-42
2022/11/08 12:55:31;;;;;;;;;;;16.50;99.90;;;;;;5096576;28;19912;-42
2022/11/08 12:57:58;;;;;;;;;;;16.50;99.90;;;;;;5105086;28;19914;-42
2022/11/08 13:00:26;;;;;;;;;;;16.50;99.90;;;;;;5117134;28;20336;-42
2022/11/08 13:02:58;;;;;;;;;;;16.60;99.90;;;;;;5111821;28;19912;-43
2022/11/08 13:05:25;;;;;;;;;;;16.50;99.90;;;;;;5096621;28;20382;-43
2022/11/08 13:08:00;;;;;;;;;;;16.50;99.90;;;;;;5096331;28;19908;-43
2022/11/08 13:10:28;;;;;;;;;;;16.50;99.90;;;;;;5116819;28;20387;-42
2022/11/08 13:13:06;;;;;;;;;;;16.40;99.90;;;;;;5116662;28;19998;-40
2022/11/08 13:15:31;;;;;;;;;;;16.30;99.90;;;;;;5115954;28;20414;-35
2022/11/08 13:18:06;;;;;;;;;;;16.30;99.90;;;;;;5100519;28;19908;-41
2022/11/08 13:20:37;;;;;;;;;;;16.30;99.90;;;;;;5100614;28;20065;-41
2022/11/08 13:23:05;;;;;;;;;;;16.30;99.90;;;;;;5106314;28;19998;-42
2022/11/08 13:25:32;;;;;;;;;;;16.30;99.90;;;;;;5111002;28;19908;-41
2022/11/08 13:27:58;;;;;;;;;;;16.30;99.90;;;;;;5108966;28;20363;-41
2022/11/08 13:30:23;;;;;;;;;;;16.20;99.90;;;;;;5116393;28;19908;-42
2022/11/08 13:32:58;;;;;;;;;;;16.20;99.90;;;;;;5113099;28;19908;-43
2022/11/08 13:35:35;;;;;;;;;;;16.20;99.90;;;;;;5095134;28;19981;-40
2022/11/08 13:38:01;;;;;;;;;;;16.30;99.90;;;;;;5095652;28;20382;-44
2022/11/08 13:40:35;;;;;;;;;;;16.30;99.90;;;;;;5114008;28;19911;-43
2022/11/08 13:43:21;;;;;;;;;;;16.30;99.90;;;;;;5113340;28;19919;-42
2022/11/08 13:45:47;;;;;;;;;;;16.30;99.90;;;;;;5116112;28;20363;-42
2022/11/08 13:48:16;;;;;;;;;;;16.30;99.90;;;;;;5105768;28;19915;-42
2022/11/08 13:50:46;;;;;;;;;;;16.20;99.90;;;;;;5094092;28;19908;-40
2022/11/08 13:53:18;;;;;;;;;;;16.20;99.90;;;;;;5095182;28;19919;-44
2022/11/08 13:55:54;;;;;;;;;;;16.20;99.90;;;;;;5095397;28;20363;-39
2022/11/08 13:58:33;;;;;;;;;;;16.10;99.90;;;;;;5098602;28;19908;-42
2022/11/08 14:00:59;;;;;;;;;;;16.00;99.90;;;;;;5095261;28;20292;-42
2022/11/08 14:03:31;;;;;;;;;;;16.10;99.90;;;;;;5094993;28;19908;-39
2022/11/08 14:06:00;;;;;;;;;;;16.10;99.90;;;;;;5107578;28;19968;-41
2022/11/08 14:08:28;;;;;;;;;;;16.10;99.90;;;;;;5104718;28;20379;-45
2022/11/08 14:10:59;;;;;;;;;;;16.10;99.90;;;;;;5095324;28;19976;-40
2022/11/08 14:13:45;;;;;;;;;;;16.10;99.90;;;;;;5094831;28;20367;-41
2022/11/08 14:16:16;;;;;;;;;;;16.00;99.90;;;;;;5090940;28;20279;-40
2022/11/08 14:18:41;;;;;;;;;;;16.00;99.90;;;;;;5094595;28;19908;-41
2022/11/08 14:21:07;;;;;;;;;;;16.00;99.90;;;;;;5094638;28;19915;-36
2022/11/08 14:23:38;;;;;;;;;;;16.00;99.90;;;;;;5094866;28;20003;-40
2022/11/08 14:26:05;;;;;;;;;;;15.90;99.90;;;;;;5094683;28;20359;-41
2022/11/08 14:28:32;;;;;;;;;;;15.80;99.90;;;;;;5103381;28;19961;-40
2022/11/08 14:30:59;;;;;;;;;;;15.80;99.90;;;;;;5099585;28;19908;-42
2022/11/08 14:33:26;;;;;;;;;;;15.80;99.90;;;;;;5114934;28;19915;-40
2022/11/08 14:35:52;;;;;;;;;;;15.80;99.90;;;;;;5115232;28;19907;-41
2022/11/08 14:38:18;;;;;;;;;;;15.80;99.90;;;;;;5097097;28;19915;-40
2022/11/08 14:40:48;;;;;;;;;;;15.80;99.90;;;;;;5094548;28;19908;-41
2022/11/08 14:43:13;;;;;;;;;;;15.80;99.90;;;;;;5094254;28;19961;-58
2022/11/08 14:45:41;;;;;;;;;;;15.80;99.90;;;;;;5094160;28;19912;-39
2022/11/08 14:48:11;;;;;;;;;;;15.90;99.90;;;;;;5094170;28;19950;-42